createdAt,value
2023-01-05T00:01:22.899Z,81.54
2023-01-05T00:03:49.308Z,81.69
2023-01-05T00:06:17.897Z,82.52
2023-01-05T00:08:46.636Z,82.26
2023-01-05T00:11:37.619Z,83.06
2023-01-05T00:14:22.942Z,82.69
2023-01-05T00:17:08.142Z,83.52
2023-01-05T00:19:53.479Z,83.50
2023-01-05T00:22:31.288Z,84.45
2023-01-05T00:25:11.764Z,85.27
2023-01-05T00:27:41.071Z,84.91
2023-01-05T00:30:09.404Z,85.27
2023-01-05T00:32:35.881Z,85.69
2023-01-05T00:35:02.684Z,85.33
2023-01-05T00:37:32.440Z,83.56
2023-01-05T00:39:58.957Z,84.79
2023-01-05T00:42:25.760Z,84.31
2023-01-05T00:44:52.771Z,84.40
2023-01-05T00:47:19.216Z,83.00
2023-01-05T00:49:45.690Z,83.07
2023-01-05T00:52:12.137Z,83.97
2023-01-05T00:54:38.561Z,82.46
2023-01-05T00:57:07.003Z,82.38
2023-01-05T00:59:33.535Z,83.26
2023-01-05T01:02:00.149Z,83.00
2023-01-05T01:04:26.685Z,82.81
2023-01-05T01:06:54.491Z,82.10
2023-01-05T01:09:20.934Z,82.57
2023-01-05T01:11:47.364Z,82.02
2023-01-05T01:14:13.864Z,82.11
2023-01-05T01:16:42.033Z,82.56
2023-01-05T01:19:20.605Z,82.98
2023-01-05T01:21:47.107Z,83.25
2023-01-05T01:24:19.176Z,82.80
2023-01-05T01:26:45.758Z,81.95
2023-01-05T01:29:12.620Z,81.72
2023-01-05T01:31:39.103Z,82.18
2023-01-05T01:34:06.100Z,83.22
2023-01-05T01:36:32.502Z,83.98
2023-01-05T01:38:58.945Z,83.12
2023-01-05T01:41:25.377Z,83.79
2023-01-05T01:43:54.732Z,83.76
2023-01-05T01:46:22.526Z,82.50
2023-01-05T01:48:57.816Z,82.52
2023-01-05T01:51:32.635Z,82.41
2023-01-05T01:54:02.970Z,82.24
2023-01-05T01:56:35.227Z,81.09
2023-01-05T01:59:02.200Z,81.98
2023-01-05T02:01:28.881Z,81.68
2023-01-05T02:03:56.394Z,80.89
2023-01-05T02:06:23.217Z,81.04
2023-01-05T02:08:50.069Z,81.21
2023-01-05T02:11:50.473Z,81.56
2023-01-05T02:14:45.777Z,80.72
2023-01-05T02:17:30.247Z,80.74
2023-01-05T02:20:25.518Z,82.03
2023-01-05T02:23:36.687Z,81.62
2023-01-05T02:26:21.151Z,80.96
2023-01-05T02:29:11.896Z,80.89
2023-01-05T02:32:10.897Z,80.14
2023-01-05T02:35:10.068Z,80.83
2023-01-05T02:37:52.551Z,80.43
2023-01-05T02:40:24.758Z,81.08
2023-01-05T02:42:55.702Z,80.62
2023-01-05T02:45:23.171Z,81.41
2023-01-05T02:47:50.112Z,82.14
2023-01-05T02:50:25.844Z,81.07
2023-01-05T02:53:18.508Z,81.07
2023-01-05T02:55:49.923Z,81.37
2023-01-05T02:58:22.740Z,81.29
2023-01-05T03:00:56.838Z,81.94
2023-01-05T03:03:37.515Z,81.96
2023-01-05T03:06:21.965Z,81.10
2023-01-05T03:08:52.616Z,81.66
2023-01-05T03:11:37.791Z,80.95
2023-01-05T03:14:21.396Z,80.21
2023-01-05T03:16:50.947Z,80.42
2023-01-05T03:19:39.066Z,81.33
2023-01-05T03:22:30.548Z,80.37
2023-01-05T03:25:15.850Z,79.47
2023-01-05T03:28:01.494Z,80.66
2023-01-05T03:30:58.078Z,80.83
2023-01-05T03:33:58.269Z,81.86
2023-01-05T03:36:28.868Z,79.78
2023-01-05T03:38:59.010Z,80.15
2023-01-05T03:41:27.341Z,81.00
2023-01-05T03:43:54.512Z,80.50
2023-01-05T03:46:22.433Z,81.05
2023-01-05T03:48:49.473Z,80.25
2023-01-05T03:51:16.966Z,80.04
2023-01-05T03:53:43.604Z,78.98
2023-01-05T03:56:10.462Z,78.34
2023-01-05T03:58:37.117Z,78.50
2023-01-05T04:01:04.691Z,78.27
2023-01-05T04:03:32.153Z,79.81
2023-01-05T04:05:58.834Z,78.66
2023-01-05T04:08:25.256Z,78.72
2023-01-05T04:10:53.287Z,79.10
2023-01-05T04:13:20.185Z,77.08
2023-01-05T04:15:46.702Z,78.22
2023-01-05T04:18:13.123Z,77.54
2023-01-05T04:20:39.533Z,77.28
2023-01-05T04:23:05.966Z,77.18
2023-01-05T04:25:32.323Z,76.89
2023-01-05T04:27:58.978Z,78.92
2023-01-05T04:30:25.428Z,77.10
2023-01-05T04:32:51.850Z,77.31
2023-01-05T04:35:18.274Z,77.79
2023-01-05T04:37:44.710Z,78.74
2023-01-05T04:40:11.619Z,78.76
2023-01-05T04:42:37.997Z,78.40
2023-01-05T04:45:04.866Z,78.32
2023-01-05T04:47:31.270Z,78.83
2023-01-05T04:49:57.692Z,80.32
2023-01-05T04:52:24.088Z,79.80
2023-01-05T04:54:50.489Z,79.49
2023-01-05T04:57:16.903Z,81.03
2023-01-05T04:59:43.382Z,80.59
2023-01-05T05:02:11.719Z,79.04
2023-01-05T05:04:38.169Z,79.89
2023-01-05T05:07:04.598Z,79.69
2023-01-05T05:09:30.982Z,78.58
2023-01-05T05:11:57.389Z,78.67
2023-01-05T05:14:23.862Z,78.11
2023-01-05T05:16:50.283Z,76.77
2023-01-05T05:19:16.701Z,78.70
2023-01-05T05:21:43.132Z,77.43
2023-01-05T05:24:09.622Z,78.72
2023-01-05T05:26:36.019Z,78.25
2023-01-05T05:29:02.486Z,77.80
2023-01-05T05:31:28.970Z,77.25
2023-01-05T05:33:55.375Z,76.37
2023-01-05T05:36:21.932Z,76.24
2023-01-05T05:38:48.322Z,77.49
2023-01-05T05:41:14.722Z,77.13
2023-01-05T05:43:41.137Z,76.86
2023-01-05T05:46:07.620Z,76.32
2023-01-05T05:48:34.206Z,75.46
2023-01-05T05:51:00.727Z,75.26
2023-01-05T05:53:27.128Z,75.34
2023-01-05T05:55:53.552Z,77.23
2023-01-05T05:58:20.332Z,77.26
2023-01-05T06:00:47.228Z,76.88
2023-01-05T06:03:13.799Z,75.73
2023-01-05T06:05:40.306Z,77.06
2023-01-05T06:08:06.995Z,77.08
2023-01-05T06:10:33.419Z,76.60
2023-01-05T06:12:59.929Z,77.79
2023-01-05T06:15:26.376Z,77.35
2023-01-05T06:17:52.817Z,75.56
2023-01-05T06:20:19.328Z,77.32
2023-01-05T06:22:45.756Z,76.14
2023-01-05T06:25:12.252Z,76.75
2023-01-05T06:27:38.696Z,75.31
2023-01-05T06:30:05.609Z,76.95
2023-01-05T06:32:31.988Z,74.91
2023-01-05T06:34:58.386Z,75.28
2023-01-05T06:37:24.799Z,74.13
2023-01-05T06:39:51.266Z,73.95
2023-01-05T06:42:23.072Z,75.25
2023-01-05T06:44:50.001Z,73.27
2023-01-05T06:47:16.404Z,73.84
2023-01-05T06:49:42.813Z,73.56
2023-01-05T06:52:15.765Z,73.33
2023-01-05T06:54:42.847Z,72.90
2023-01-05T06:57:09.295Z,72.94
2023-01-05T06:59:35.721Z,72.84
2023-01-05T07:02:02.367Z,73.61
2023-01-05T07:04:28.944Z,72.77
2023-01-05T07:06:55.406Z,73.04
2023-01-05T07:09:21.881Z,73.78
2023-01-05T07:11:48.314Z,73.61
2023-01-05T07:14:15.754Z,71.92
2023-01-05T07:16:42.253Z,72.39
2023-01-05T07:19:09.940Z,71.06
2023-01-05T07:21:36.326Z,71.76
2023-01-05T07:24:03.788Z,71.29
2023-01-05T07:26:30.243Z,72.07
2023-01-05T07:28:58.427Z,71.49
2023-01-05T07:31:24.865Z,71.73
2023-01-05T07:33:51.383Z,71.97
2023-01-05T07:36:17.851Z,72.30
2023-01-05T07:38:44.320Z,71.82
2023-01-05T07:41:10.731Z,72.00
2023-01-05T07:43:37.296Z,71.98
2023-01-05T07:46:04.250Z,71.65
2023-01-05T07:48:30.886Z,71.55
2023-01-05T07:51:01.616Z,71.31
2023-01-05T07:53:30.001Z,71.43
2023-01-05T07:55:58.660Z,71.49
2023-01-05T07:58:26.358Z,71.77
2023-01-05T08:00:53.123Z,70.82
2023-01-05T08:03:19.731Z,70.19
2023-01-05T08:05:46.647Z,70.48
2023-01-05T08:08:19.117Z,71.70
2023-01-05T08:10:48.866Z,70.53
2023-01-05T08:13:33.602Z,71.17
2023-01-05T08:16:00.271Z,71.92
2023-01-05T08:18:27.000Z,71.70
2023-01-05T08:20:56.015Z,70.84
2023-01-05T08:23:25.193Z,70.01
2023-01-05T08:25:53.773Z,71.00
2023-01-05T08:28:20.309Z,71.35
2023-01-05T08:30:47.570Z,71.50
2023-01-05T08:33:14.044Z,70.03
2023-01-05T08:35:42.164Z,69.56
2023-01-05T08:38:09.027Z,69.65
2023-01-05T08:40:37.843Z,70.93
2023-01-05T08:43:05.835Z,70.58
2023-01-05T08:45:33.103Z,70.65
2023-01-05T08:48:01.083Z,70.09
2023-01-05T08:50:27.673Z,69.31
2023-01-05T08:52:54.076Z,69.07
2023-01-05T08:55:20.584Z,70.37
2023-01-05T08:57:47.039Z,69.08
2023-01-05T09:00:14.172Z,69.81
2023-01-05T09:02:40.921Z,70.75
2023-01-05T09:05:08.284Z,70.43
2023-01-05T09:07:34.864Z,70.25
2023-01-05T09:10:01.275Z,69.70
2023-01-05T09:12:32.803Z,69.65
2023-01-05T09:14:59.677Z,69.62
2023-01-05T09:17:26.155Z,69.08
2023-01-05T09:19:52.612Z,67.86
2023-01-05T09:22:19.022Z,69.96
2023-01-05T09:24:45.766Z,68.92
2023-01-05T09:27:12.199Z,68.01
2023-01-05T09:29:38.698Z,67.99
2023-01-05T09:32:05.986Z,68.40
2023-01-05T09:34:32.697Z,68.72
2023-01-05T09:36:59.395Z,68.42
2023-01-05T09:39:25.897Z,69.28
2023-01-05T09:41:58.957Z,68.24
2023-01-05T09:44:25.363Z,68.39
2023-01-05T09:46:53.865Z,68.58
2023-01-05T09:49:23.327Z,68.16
2023-01-05T09:51:57.828Z,68.84
2023-01-05T09:54:27.002Z,68.70
2023-01-05T09:57:10.859Z,67.52
2023-01-05T09:59:42.587Z,68.87
2023-01-05T10:02:26.188Z,68.29
2023-01-05T10:04:54.303Z,69.04
2023-01-05T10:07:44.372Z,69.34
2023-01-05T10:10:30.752Z,67.69
2023-01-05T10:13:07.030Z,68.44
2023-01-05T10:15:48.130Z,69.58
2023-01-05T10:18:19.080Z,68.54
2023-01-05T10:20:54.426Z,67.57
2023-01-05T10:23:21.468Z,68.78
2023-01-05T10:25:47.894Z,68.62
2023-01-05T10:28:38.472Z,68.78
2023-01-05T10:31:22.774Z,68.24
2023-01-05T10:34:00.227Z,67.95
2023-01-05T10:39:34.744Z,67.05
2023-01-05T10:42:27.567Z,68.57
2023-01-05T10:45:03.241Z,67.10
2023-01-05T10:47:32.693Z,68.93
2023-01-05T10:50:01.179Z,67.16
2023-01-05T10:52:27.803Z,67.73
2023-01-05T10:54:58.160Z,67.84
2023-01-05T10:57:35.130Z,67.60
2023-01-05T11:00:11.395Z,68.08
2023-01-05T11:02:42.935Z,67.55
2023-01-05T11:05:12.878Z,68.70
2023-01-05T11:07:51.634Z,68.56
2023-01-05T11:10:24.564Z,68.84
2023-01-05T11:12:55.605Z,68.46
2023-01-05T11:15:22.046Z,66.54
2023-01-05T11:17:48.533Z,68.13
2023-01-05T11:20:17.152Z,67.13
2023-01-05T11:22:44.395Z,68.32
2023-01-05T11:25:30.669Z,67.16
2023-01-05T11:28:11.348Z,66.53
2023-01-05T11:30:59.853Z,67.04
2023-01-05T11:33:29.251Z,67.83
2023-01-05T11:35:57.289Z,66.57
2023-01-05T11:38:29.235Z,67.02
2023-01-05T11:41:00.025Z,65.65
2023-01-05T11:43:29.959Z,66.98
2023-01-05T11:46:03.553Z,65.86
2023-01-05T11:48:33.553Z,65.96
2023-01-05T11:51:00.442Z,65.60
2023-01-05T11:53:38.199Z,64.51
2023-01-05T11:56:17.638Z,63.29
2023-01-05T11:58:45.884Z,65.28
2023-01-05T12:01:43.189Z,63.69
2023-01-05T12:04:24.744Z,65.62
2023-01-05T12:07:18.588Z,65.47
2023-01-05T12:09:58.045Z,63.66
2023-01-05T12:12:27.468Z,65.40
2023-01-05T12:15:21.790Z,65.22
2023-01-05T12:18:17.424Z,63.82
2023-01-05T12:21:02.303Z,64.84
2023-01-05T12:23:45.006Z,63.32
2023-01-05T12:26:38.714Z,65.19
2023-01-05T12:30:32.999Z,64.59
2023-01-05T12:36:02.322Z,63.21
2023-01-05T12:38:34.737Z,64.15
2023-01-05T12:41:33.926Z,63.54
2023-01-05T12:44:47.948Z,63.28
2023-01-05T12:47:25.973Z,63.16
2023-01-05T12:50:16.727Z,63.57
2023-01-05T12:52:49.161Z,64.49
2023-01-05T12:55:20.682Z,62.91
2023-01-05T12:57:54.060Z,63.34
2023-01-05T13:00:21.878Z,63.48
2023-01-05T13:02:54.412Z,62.92
2023-01-05T13:05:46.182Z,64.16
2023-01-05T13:08:21.037Z,62.40
2023-01-05T13:11:25.281Z,63.94
2023-01-05T13:13:56.854Z,63.88
2023-01-05T13:16:43.051Z,64.04
2023-01-05T13:19:20.916Z,63.39
2023-01-05T13:21:47.976Z,62.84
2023-01-05T13:24:31.161Z,63.96
2023-01-05T13:26:59.637Z,63.30
2023-01-05T13:29:48.791Z,64.05
2023-01-05T13:32:54.746Z,62.62
2023-01-05T13:35:37.061Z,64.02
2023-01-05T13:38:22.179Z,63.03
2023-01-05T13:41:03.498Z,64.45
2023-01-05T13:43:45.791Z,62.90
2023-01-05T13:46:21.392Z,63.15
2023-01-05T13:49:03.176Z,62.25
2023-01-05T13:51:54.606Z,62.99
2023-01-05T13:54:49.480Z,63.02
2023-01-05T13:57:26.816Z,61.44
2023-01-05T14:00:09.527Z,61.98
2023-01-05T14:02:41.638Z,61.52
2023-01-05T14:05:26.085Z,62.89
2023-01-05T14:07:54.568Z,62.56
2023-01-05T14:10:27.229Z,62.05
2023-01-05T14:12:54.378Z,62.52
2023-01-05T14:15:38.177Z,62.53
2023-01-05T14:18:06.529Z,62.60
2023-01-05T14:20:46.208Z,63.14
2023-01-05T14:23:24.728Z,62.23
2023-01-05T14:26:00.480Z,63.72
2023-01-05T14:28:31.154Z,62.61
2023-01-05T14:31:16.600Z,62.94
2023-01-05T14:34:00.748Z,63.47
2023-01-05T14:36:37.920Z,63.92
2023-01-05T14:39:20.873Z,62.47
2023-01-05T14:41:59.290Z,62.59
2023-01-05T14:44:31.870Z,62.33
2023-01-05T14:46:58.591Z,64.25
2023-01-05T14:49:36.849Z,63.92
2023-01-05T14:52:06.831Z,63.36
2023-01-05T14:54:40.509Z,63.51
2023-01-05T14:57:25.320Z,63.68
2023-01-05T15:00:04.760Z,63.78
2023-01-05T15:02:52.585Z,63.13
2023-01-05T15:05:20.921Z,63.86
2023-01-05T15:08:19.856Z,63.63
2023-01-05T15:10:46.229Z,63.97
2023-01-05T15:13:24.815Z,64.79
2023-01-05T15:16:25.349Z,63.85
2023-01-05T15:19:11.442Z,64.64
2023-01-05T15:21:56.073Z,63.93
2023-01-05T15:24:44.550Z,64.86
2023-01-05T15:27:36.425Z,65.13
2023-01-05T15:30:33.577Z,65.71
2023-01-05T15:33:35.875Z,65.29
2023-01-05T15:36:05.231Z,64.25
2023-01-05T15:38:43.584Z,64.79
2023-01-05T15:41:13.336Z,64.63
2023-01-05T15:43:42.491Z,64.73
2023-01-05T15:46:11.141Z,64.27
2023-01-05T15:48:46.345Z,65.30
2023-01-05T15:51:28.711Z,64.74
2023-01-05T15:54:05.495Z,65.72
2023-01-05T15:56:41.153Z,65.43
2023-01-05T15:59:40.404Z,65.23
2023-01-05T16:02:27.339Z,66.01
2023-01-05T16:05:24.193Z,65.63
2023-01-05T16:07:57.639Z,65.23
2023-01-05T16:10:37.542Z,64.57
2023-01-05T16:13:16.607Z,65.39
2023-01-05T16:15:47.434Z,65.13
2023-01-05T16:18:23.359Z,64.63
2023-01-05T16:20:53.351Z,64.89
2023-01-05T16:23:19.670Z,65.66
2023-01-05T16:26:04.487Z,65.00
2023-01-05T16:28:30.960Z,65.45
2023-01-05T16:30:57.447Z,65.70
2023-01-05T16:33:39.176Z,65.66
2023-01-05T16:36:09.415Z,64.29
2023-01-05T16:38:36.175Z,64.83
2023-01-05T16:41:07.479Z,64.70
2023-01-05T16:43:43.560Z,65.19
2023-01-05T16:46:18.693Z,65.63
2023-01-05T16:48:51.193Z,65.29
2023-01-05T16:51:21.086Z,65.51
2023-01-05T16:53:54.617Z,64.88
2023-01-05T16:56:34.569Z,65.39
2023-01-05T16:59:03.469Z,65.63
2023-01-05T17:01:40.197Z,65.47
2023-01-05T17:04:14.335Z,66.10
2023-01-05T17:06:51.488Z,64.82
2023-01-05T17:09:33.304Z,65.18
2023-01-05T17:11:59.661Z,66.30
2023-01-05T17:14:28.099Z,65.65
2023-01-05T17:16:55.199Z,66.50
2023-01-05T17:19:21.821Z,66.64
2023-01-05T17:21:56.553Z,66.32
2023-01-05T17:24:23.589Z,66.01
2023-01-05T17:26:50.157Z,65.65
2023-01-05T17:29:22.706Z,66.13
2023-01-05T17:31:49.399Z,65.16
2023-01-05T17:34:15.946Z,65.08
2023-01-05T17:36:43.336Z,64.72
2023-01-05T17:39:20.914Z,65.08
2023-01-05T17:41:47.417Z,65.30
2023-01-05T17:44:13.956Z,65.28
2023-01-05T17:46:42.970Z,64.40
2023-01-05T17:49:15.083Z,65.58
2023-01-05T17:51:41.540Z,65.37
2023-01-05T17:54:07.994Z,65.43
2023-01-05T17:56:34.676Z,65.28
2023-01-05T17:59:03.140Z,65.17
2023-01-05T18:01:29.651Z,65.58
2023-01-05T18:03:56.129Z,65.54
2023-01-05T18:06:22.514Z,65.06
2023-01-05T18:08:48.919Z,65.49
2023-01-05T18:11:17.271Z,65.89
2023-01-05T18:13:44.443Z,65.87
2023-01-05T18:16:12.409Z,65.91
2023-01-05T18:18:39.061Z,66.68
2023-01-05T18:21:05.978Z,66.03
2023-01-05T18:23:32.945Z,65.53
2023-01-05T18:26:07.310Z,65.72
2023-01-05T18:28:33.853Z,65.89
2023-01-05T18:31:01.101Z,65.50
2023-01-05T18:33:28.108Z,65.79
2023-01-05T18:38:21.782Z,66.19
2023-01-05T18:40:49.984Z,66.21
2023-01-05T18:43:16.998Z,65.96
2023-01-05T18:45:43.509Z,66.52
2023-01-05T18:48:10.059Z,65.96
2023-01-05T18:50:44.443Z,66.44
2023-01-05T18:53:11.606Z,65.72
2023-01-05T18:55:41.802Z,65.53
2023-01-05T18:58:08.749Z,65.93
2023-01-05T19:00:35.451Z,65.73
2023-01-05T19:03:02.155Z,65.08
2023-01-05T19:05:28.612Z,66.40
2023-01-05T19:07:55.061Z,66.15
2023-01-05T19:10:21.862Z,65.91
2023-01-05T19:12:48.322Z,66.14
2023-01-05T19:15:14.871Z,66.11
2023-01-05T19:17:41.315Z,66.00
2023-01-05T19:20:08.255Z,65.65
2023-01-05T19:22:35.090Z,65.15
2023-01-05T19:25:01.582Z,66.26
2023-01-05T19:27:28.053Z,65.87
2023-01-05T19:29:54.559Z,65.52
2023-01-05T19:32:21.043Z,65.78
2023-01-05T19:34:47.507Z,65.80
2023-01-05T19:37:14.051Z,65.83
2023-01-05T19:39:41.102Z,65.46
2023-01-05T19:42:07.618Z,65.80
2023-01-05T19:44:34.073Z,65.68
2023-01-05T19:47:00.479Z,65.35
2023-01-05T19:49:27.757Z,65.67
2023-01-05T19:51:54.721Z,65.61
2023-01-05T19:54:22.427Z,65.30
2023-01-05T19:56:48.954Z,66.19
2023-01-05T19:59:24.404Z,66.29
2023-01-05T20:01:50.926Z,65.98
2023-01-05T20:04:17.515Z,65.83
2023-01-05T20:06:45.508Z,65.97
2023-01-05T20:09:17.217Z,66.25
2023-01-05T20:11:45.127Z,66.34
2023-01-05T20:14:24.253Z,66.89
2023-01-05T20:17:01.435Z,66.01
2023-01-05T20:19:31.304Z,66.67
2023-01-05T20:21:59.891Z,65.96
2023-01-05T20:24:29.751Z,65.69
2023-01-05T20:27:00.180Z,66.18
2023-01-05T20:29:28.096Z,65.20
2023-01-05T20:32:00.808Z,66.49
2023-01-05T20:34:31.865Z,66.07
2023-01-05T20:37:03.959Z,66.09
2023-01-05T20:39:31.447Z,66.27
2023-01-05T20:42:04.463Z,65.80
2023-01-05T20:44:33.538Z,66.58
2023-01-05T20:47:00.554Z,67.03
2023-01-05T20:49:27.172Z,66.87
2023-01-05T20:51:53.974Z,66.92
2023-01-05T20:54:20.398Z,66.72
2023-01-05T20:56:46.949Z,66.54
2023-01-05T20:59:19.496Z,66.37
2023-01-05T21:01:46.597Z,66.34
2023-01-05T21:04:13.825Z,66.84
2023-01-05T21:06:40.413Z,66.41
2023-01-05T21:09:08.303Z,67.12
2023-01-05T21:11:35.491Z,67.02
2023-01-05T21:14:02.836Z,67.91
2023-01-05T21:16:33.196Z,68.46
2023-01-05T21:19:01.340Z,69.41
2023-01-05T21:21:29.151Z,68.73
2023-01-05T21:23:55.667Z,68.78
2023-01-05T21:26:23.192Z,69.25
2023-01-05T21:28:51.668Z,69.30
2023-01-05T21:31:21.781Z,68.63
2023-01-05T21:33:48.497Z,69.71
2023-01-05T21:36:20.451Z,70.22
2023-01-05T21:39:03.773Z,71.01
2023-01-05T21:41:54.013Z,70.12
2023-01-05T21:44:21.082Z,70.49
2023-01-05T21:46:49.154Z,70.37
2023-01-05T21:49:16.761Z,69.81
2023-01-05T21:52:01.842Z,69.50
2023-01-05T21:54:47.187Z,70.11
2023-01-05T21:57:13.825Z,69.52
2023-01-05T21:59:41.011Z,70.71
2023-01-05T22:02:07.735Z,70.16
2023-01-05T22:04:34.239Z,70.69
2023-01-05T22:07:01.060Z,69.14
2023-01-05T22:09:27.491Z,69.75
2023-01-05T22:11:53.916Z,70.36
2023-01-05T22:14:20.376Z,71.47
2023-01-05T22:16:46.844Z,71.61
2023-01-05T22:19:13.294Z,70.45
2023-01-05T22:21:39.715Z,69.80
2023-01-05T22:24:06.814Z,69.74
2023-01-05T22:26:33.264Z,70.92
2023-01-05T22:28:59.682Z,69.08
2023-01-05T22:31:28.572Z,69.22
2023-01-05T22:34:00.816Z,69.85
2023-01-05T22:36:28.805Z,68.95
2023-01-05T22:38:56.081Z,69.74
2023-01-05T22:41:25.763Z,70.08
2023-01-05T22:43:52.868Z,69.31
2023-01-05T22:46:21.978Z,70.92
2023-01-05T22:48:51.289Z,69.86
2023-01-05T22:51:42.545Z,70.89
2023-01-05T22:54:09.078Z,71.77
2023-01-05T22:56:35.594Z,70.86
2023-01-05T22:59:02.562Z,71.49
2023-01-05T23:01:35.063Z,72.31
2023-01-05T23:04:04.011Z,71.16
2023-01-05T23:06:30.486Z,72.22
2023-01-05T23:08:57.793Z,72.79
2023-01-05T23:11:30.017Z,73.54
2023-01-05T23:13:58.076Z,71.47
2023-01-05T23:16:25.412Z,72.02
2023-01-05T23:18:52.423Z,72.09
2023-01-05T23:21:20.475Z,72.50
2023-01-05T23:23:47.417Z,72.07
2023-01-05T23:26:15.291Z,72.24
2023-01-05T23:28:43.288Z,72.93
2023-01-05T23:31:11.424Z,73.11
2023-01-05T23:33:38.006Z,74.34
2023-01-05T23:36:05.303Z,73.69
2023-01-05T23:38:33.170Z,73.50
2023-01-05T23:41:00.649Z,72.53
2023-01-05T23:43:29.731Z,73.36
2023-01-05T23:46:02.170Z,73.49
2023-01-05T23:48:29.051Z,73.99
2023-01-05T23:50:56.577Z,73.37
2023-01-05T23:53:23.720Z,73.76
2023-01-05T23:55:50.478Z,73.54
2023-01-05T23:58:16.889Z,74.10
